Time;durP1;ratioP1;P1;durP2;ratioP2;P2;SDS_P1;SDS_P2;PMS_P1;PMS_P2;Temp;Humidity;BMP_temperature;BMP_pressure;BME280_temperature;BME280_humidity;BME280_pressure;Samples;Min_cycle;Max_cycle;Signal;HPM_P1;HPM_P2
2022/12/12 00:01:32;;;;;;;62.50;24.13;;;-1.50;95.80;;;;;;5012466;28;20030;-74
2022/12/12 00:03:58;;;;;;;59.75;21.98;;;-1.50;95.80;;;;;;5009560;28;20109;-73
2022/12/12 00:06:25;;;;;;;64.53;25.20;;;-1.50;95.80;;;;;;5010995;28;20038;-74
2022/12/12 00:08:51;;;;;;;68.85;23.73;;;-1.50;95.90;;;;;;5010841;28;20026;-73
2022/12/12 00:11:17;;;;;;;62.30;24.30;;;-1.40;95.90;;;;;;5011739;28;20025;-73
2022/12/12 00:13:43;;;;;;;58.63;23.30;;;-1.30;95.80;;;;;;5011347;28;20046;-74
2022/12/12 00:16:10;;;;;;;66.43;23.40;;;-1.30;95.80;;;;;;5011848;28;20076;-74
2022/12/12 00:18:36;;;;;;;57.50;22.92;;;-1.20;95.70;;;;;;5011376;28;20037;-74
2022/12/12 00:21:05;;;;;;;58.35;24.30;;;-1.30;95.60;;;;;;5010880;28;20522;-75
2022/12/12 00:23:30;;;;;;;59.33;22.90;;;-1.30;95.60;;;;;;5011947;28;20034;-75
2022/12/12 00:25:58;;;;;;;59.55;22.73;;;-1.40;95.50;;;;;;5012456;28;20427;-75
2022/12/12 00:28:25;;;;;;;52.65;22.23;;;-1.30;95.50;;;;;;5012066;28;20105;-75
2022/12/12 00:30:51;;;;;;;53.97;21.45;;;-1.40;95.50;;;;;;5012249;28;20329;-74
2022/12/12 00:33:17;;;;;;;60.72;23.95;;;-1.50;95.60;;;;;;5011742;28;20034;-75
2022/12/12 00:35:42;;;;;;;59.03;23.98;;;-1.40;95.70;;;;;;5011750;28;20030;-74
2022/12/12 00:38:08;;;;;;;56.92;23.55;;;-1.40;95.70;;;;;;5010584;28;20026;-75
2022/12/12 00:40:35;;;;;;;58.90;24.70;;;-1.40;95.60;;;;;;5012301;28;20463;-73
2022/12/12 00:43:01;;;;;;;58.17;23.65;;;-1.40;95.60;;;;;;5011889;28;20030;-74
2022/12/12 00:45:26;;;;;;;56.60;23.10;;;-1.50;95.60;;;;;;5011602;28;20037;-76
2022/12/12 00:47:52;;;;;;;60.08;23.15;;;-1.60;95.60;;;;;;5011586;28;20359;-73
2022/12/12 00:50:18;;;;;;;58.22;23.40;;;-1.50;95.80;;;;;;5011679;28;20053;-74
2022/12/12 00:52:43;;;;;;;54.55;23.17;;;-1.60;95.70;;;;;;5010926;28;20025;-74
2022/12/12 00:55:11;;;;;;;58.17;22.92;;;-1.60;95.70;;;;;;5011432;28;20030;-74
2022/12/12 00:57:36;;;;;;;70.93;24.08;;;-1.50;95.80;;;;;;5011307;28;20036;-76
2022/12/12 01:00:05;;;;;;;59.90;23.20;;;-1.50;95.70;;;;;;5011360;28;20045;-73
2022/12/12 01:02:30;;;;;;;58.42;23.10;;;-1.50;95.90;;;;;;5011306;28;20030;-74
2022/12/12 01:04:56;;;;;;;61.17;23.60;;;-1.50;95.70;;;;;;5011615;28;20022;-75
2022/12/12 01:07:22;;;;;;;65.20;24.67;;;-1.40;95.70;;;;;;5011334;28;20092;-75
2022/12/12 01:09:48;;;;;;;62.10;23.65;;;-1.40;95.60;;;;;;5011268;28;20368;-74
2022/12/12 01:12:14;;;;;;;55.30;22.70;;;-1.50;95.60;;;;;;5010030;28;20046;-74
2022/12/12 01:14:39;;;;;;;63.72;24.38;;;-1.40;95.80;;;;;;5011403;28;20018;-73
2022/12/12 01:17:05;;;;;;;60.15;23.17;;;-1.40;95.80;;;;;;5011290;28;20061;-73
2022/12/12 01:19:31;;;;;;;59.60;23.30;;;-1.00;95.90;;;;;;5010665;28;20318;-74
2022/12/12 01:21:56;;;;;;;56.83;23.98;;;-1.50;95.60;;;;;;5011050;28;20037;-75
2022/12/12 01:24:22;;;;;;;63.83;24.13;;;-1.40;95.70;;;;;;5011358;28;20038;-74
2022/12/12 01:26:48;;;;;;;62.20;25.52;;;-1.50;95.70;;;;;;5011045;28;20113;-74
2022/12/12 01:29:14;;;;;;;60.10;25.67;;;-1.40;95.70;;;;;;5010918;28;20108;-75
2022/12/12 01:31:39;;;;;;;60.45;23.65;;;-1.40;95.70;;;;;;5014550;28;20026;-74
2022/12/12 01:34:05;;;;;;;66.65;26.02;;;-1.50;95.60;;;;;;5015134;28;20056;-73
2022/12/12 01:36:31;;;;;;;56.92;24.70;;;-1.40;95.90;;;;;;5014990;28;20041;-73
2022/12/12 01:38:59;;;;;;;63.05;24.95;;;-1.60;95.90;;;;;;5013745;28;20117;-74
2022/12/12 01:41:25;;;;;;;;;;;-1.60;95.90;;;;;;5015378;28;20036;-71
2022/12/12 01:43:51;;;;;;;60.55;23.77;;;-1.60;95.90;;;;;;5015302;28;19905;-74
2022/12/12 01:46:43;;;;;;;63.45;24.55;;;-1.50;96.00;;;;;;5014964;28;20640;-74
2022/12/12 01:49:15;;;;;;;64.20;25.33;;;-1.50;95.90;;;;;;5014896;28;20026;-74
2022/12/12 01:51:41;;;;;;;65.15;25.38;;;-1.40;96.00;;;;;;5014479;28;20109;-73
2022/12/12 01:54:11;;;;;;;61.55;25.60;;;-1.40;96.00;;;;;;5014675;28;20041;-73
2022/12/12 01:56:40;;;;;;;64.85;26.15;;;-1.50;96.00;;;;;;5014650;28;20025;-72
2022/12/12 01:59:09;;;;;;;71.82;26.70;;;-1.40;96.10;;;;;;5014820;28;20099;-73
2022/12/12 02:01:36;;;;;;;70.30;26.13;;;-1.50;95.90;;;;;;5014855;28;20037;-74
2022/12/12 02:04:02;;;;;;;69.22;25.50;;;-1.50;96.00;;;;;;5013407;28;20042;-74
2022/12/12 02:06:29;;;;;;;60.40;24.63;;;-1.40;96.10;;;;;;5014397;28;20358;-74
2022/12/12 02:08:59;;;;;;;69.40;26.70;;;-1.40;96.10;;;;;;5014539;28;20092;-75
2022/12/12 02:11:28;;;;;;;61.78;25.42;;;-1.40;95.90;;;;;;5014747;28;20278;-74
2022/12/12 02:13:54;;;;;;;59.63;24.23;;;-1.40;95.90;;;;;;5014770;28;20038;-73
2022/12/12 02:16:29;;;;;;;70.38;26.80;;;-1.40;96.30;;;;;;5013085;28;20034;-72
2022/12/12 02:19:33;;;;;;;70.75;25.83;;;-1.50;96.00;;;;;;5014737;28;20344;-74
2022/12/12 02:22:32;;;;;;;67.38;27.42;;;-1.40;96.10;;;;;;5014067;28;20037;-73
2022/12/12 02:25:20;;;;;;;64.43;24.88;;;-1.40;96.00;;;;;;5001684;28;20372;-75
2022/12/12 02:28:17;;;;;;;65.15;25.45;;;-1.50;96.00;;;;;;5013546;28;20519;-74
2022/12/12 02:31:03;;;;;;;66.70;26.77;;;-1.50;96.00;;;;;;5013714;28;20030;-74
2022/12/12 02:33:44;;;;;;;72.90;26.88;;;-1.50;96.00;;;;;;5002543;28;20045;-74
2022/12/12 02:36:28;;;;;;;57.90;24.83;;;-1.50;96.00;;;;;;5024326;28;20058;-75
2022/12/12 02:39:15;;;;;;;66.32;26.40;;;-1.50;96.00;;;;;;5033417;28;20033;-75
2022/12/12 02:41:55;;;;;;;49.75;20.27;;;-1.50;95.90;;;;;;5031960;28;20041;-75
2022/12/12 02:44:41;;;;;;;81.50;26.73;;;-1.50;95.90;;;;;;5033371;28;20038;-73
2022/12/12 02:47:20;;;;;;;71.38;25.27;;;-1.60;95.80;;;;;;5033192;28;20048;-75
2022/12/12 02:50:02;;;;;;;66.85;25.95;;;-1.60;95.80;;;;;;5033599;28;20444;-75
2022/12/12 02:52:28;;;;;;;79.10;28.73;;;-1.60;95.80;;;;;;5033331;28;20041;-75
2022/12/12 02:54:54;;;;;;;79.03;28.75;;;-1.70;95.80;;;;;;5033268;28;20040;-75
2022/12/12 02:57:23;;;;;;;66.88;26.02;;;-1.70;95.90;;;;;;5031867;28;20368;-76
2022/12/12 02:59:56;;;;;;;60.15;24.42;;;-1.70;95.90;;;;;;5033001;28;20045;-76
2022/12/12 03:02:43;;;;;;;61.88;25.67;;;-1.60;95.80;;;;;;5033042;28;20026;-76
2022/12/12 03:07:52;;;;;;;62.63;24.42;;;-1.70;95.90;;;;;;5033073;28;20111;-76
2022/12/12 03:10:37;;;;;;;65.75;25.58;;;-1.70;95.90;;;;;;5032669;28;20414;-76
2022/12/12 03:13:28;;;;;;;56.63;24.35;;;-1.70;95.80;;;;;;5031610;28;20111;-75
2022/12/12 03:16:08;;;;;;;58.95;25.30;;;-1.70;95.70;;;;;;5032013;28;20030;-75
2022/12/12 03:19:04;;;;;;;61.85;25.02;;;-1.80;95.70;;;;;;5031706;28;20052;-75
2022/12/12 03:21:41;;;;;;;65.18;24.85;;;-1.80;95.70;;;;;;5031608;28;20044;-75
2022/12/12 03:24:24;;;;;;;69.25;23.67;;;-1.80;95.70;;;;;;5031575;28;20033;-74
2022/12/12 03:27:01;;;;;;;59.42;23.13;;;-1.80;95.70;;;;;;5031171;28;20125;-74
2022/12/12 03:29:34;;;;;;;72.28;25.75;;;-1.80;95.70;;;;;;5032525;28;20113;-74
2022/12/12 03:32:05;;;;;;;65.95;23.95;;;-1.80;95.60;;;;;;5032817;28;20459;-74
2022/12/12 03:34:37;;;;;;;63.45;24.27;;;-1.80;95.60;;;;;;5030878;28;20041;-73
2022/12/12 03:37:13;;;;;;;61.08;23.20;;;-1.80;95.60;;;;;;5032338;28;20439;-72
2022/12/12 03:40:02;;;;;;;62.83;24.92;;;-1.90;95.40;;;;;;5032056;28;20029;-74
2022/12/12 03:42:42;;;;;;;60.70;24.13;;;-1.90;95.40;;;;;;5031035;28;20033;-74
2022/12/12 03:45:33;;;;;;;64.45;25.73;;;-2.00;95.60;;;;;;5032522;28;20026;-75
2022/12/12 03:48:13;;;;;;;49.63;21.65;;;-1.80;95.60;;;;;;5030825;28;20033;-74
2022/12/12 03:50:50;;;;;;;57.20;23.13;;;-2.00;95.30;;;;;;5031909;28;20040;-74
2022/12/12 03:53:20;;;;;;;;;;;-1.90;95.50;;;;;;5031703;28;20041;-73
2022/12/12 03:55:59;;;;;;;60.88;22.27;;;-1.60;95.60;;;;;;5032637;28;20283;-74
2022/12/12 03:58:41;;;;;;;64.30;22.63;;;-1.70;95.60;;;;;;5032136;28;20033;-75
2022/12/12 04:01:10;;;;;;;61.30;23.80;;;-1.60;95.40;;;;;;5030598;28;20034;-74
2022/12/12 04:04:16;;;;;;;54.67;22.58;;;-1.40;95.10;;;;;;5030965;28;20042;-74
2022/12/12 04:06:52;;;;;;;60.95;23.60;;;-1.50;95.00;;;;;;5030664;28;20041;-75
2022/12/12 04:12:59;;;;;;;57.70;22.98;;;-1.70;95.00;;;;;;5031745;28;20053;-73
2022/12/12 04:15:28;;;;;;;61.78;24.05;;;-1.90;94.80;;;;;;5016360;28;20479;-74
2022/12/12 04:18:21;;;;;;;55.53;22.27;;;-2.00;94.80;;;;;;5031611;28;20064;-75
2022/12/12 04:24:06;;;;;;;55.90;22.38;;;-2.00;95.20;;;;;;5031386;28;20029;-74
2022/12/12 04:26:40;;;;;;;58.88;22.10;;;-2.00;95.30;;;;;;5031288;28;20094;-73
2022/12/12 04:29:22;;;;;;;60.80;23.15;;;-2.00;95.30;;;;;;5030320;28;20033;-74
2022/12/12 04:31:48;;;;;;;69.07;22.90;;;-2.00;95.30;;;;;;5031669;28;20100;-74
2022/12/12 04:34:32;;;;;;;54.85;22.02;;;-2.00;95.40;;;;;;5031296;28;20113;-74
2022/12/12 04:36:59;;;;;;;65.43;24.63;;;-2.00;95.30;;;;;;5031228;28;20082;-76
2022/12/12 04:39:26;;;;;;;59.25;23.95;;;-2.10;95.30;;;;;;5031434;28;20079;-75
2022/12/12 04:41:53;;;;;;;60.63;24.15;;;-2.00;95.40;;;;;;5030035;28;20026;-73
2022/12/12 04:44:21;;;;;;;55.45;23.00;;;-1.80;95.40;;;;;;5031145;28;20156;-74
2022/12/12 04:46:50;;;;;;;55.25;22.02;;;-1.80;95.20;;;;;;5031723;28;20030;-74
2022/12/12 04:49:20;;;;;;;59.03;23.45;;;-1.90;95.10;;;;;;5031255;28;20111;-74
2022/12/12 04:51:50;;;;;;;60.72;24.13;;;-1.80;95.10;;;;;;5031525;28;20149;-73
2022/12/12 04:54:25;;;;;;;62.28;23.33;;;-2.00;95.10;;;;;;5029906;28;20061;-74
2022/12/12 04:56:55;;;;;;;54.00;23.38;;;-2.00;95.10;;;;;;5031045;28;20125;-75
2022/12/12 04:59:21;;;;;;;54.88;22.35;;;-2.00;95.00;;;;;;5031304;28;20049;-74
2022/12/12 05:01:59;;;;;;;61.58;23.10;;;-2.10;95.00;;;;;;5031299;28;20032;-74
2022/12/12 05:04:55;;;;;;;60.40;22.65;;;-2.10;95.00;;;;;;5030857;28;20057;-75
2022/12/12 05:07:32;;;;;;;61.13;22.65;;;-2.10;94.90;;;;;;5030839;28;20044;-75
2022/12/12 05:09:59;;;;;;;60.60;22.38;;;-2.20;94.90;;;;;;5030803;28;20083;-74
2022/12/12 05:12:25;;;;;;;52.90;22.73;;;-2.20;95.10;;;;;;5029543;28;20053;-75
2022/12/12 05:14:50;;;;;;;61.05;23.15;;;-2.20;95.10;;;;;;5031030;28;20060;-74
2022/12/12 05:17:24;;;;;;;59.85;21.50;;;-2.20;95.10;;;;;;5030598;28;20491;-74
2022/12/12 05:19:50;;;;;;;61.97;24.30;;;-2.20;95.00;;;;;;5030083;28;20082;-73
2022/12/12 05:22:16;;;;;;;51.25;20.67;;;-2.20;95.00;;;;;;5031047;28;20034;-75
2022/12/12 05:24:41;;;;;;;58.15;23.85;;;-2.20;95.10;;;;;;5031326;28;20034;-75
2022/12/12 05:27:10;;;;;;;62.13;23.05;;;-2.20;95.10;;;;;;5029495;28;20096;-74
2022/12/12 05:29:35;;;;;;;61.55;22.73;;;-2.10;95.30;;;;;;5029755;28;20033;-73
2022/12/12 05:32:01;;;;;;;61.88;23.60;;;-2.00;95.20;;;;;;5030510;28;20471;-73
2022/12/12 05:34:27;;;;;;;63.03;23.98;;;-1.90;95.20;;;;;;5031540;28;20122;-74
2022/12/12 05:36:53;;;;;;;60.75;22.88;;;-2.00;94.90;;;;;;5030606;28;20436;-73
2022/12/12 05:39:18;;;;;;;57.08;22.27;;;-2.00;95.00;;;;;;5030726;28;20414;-73
2022/12/12 05:41:44;;;;;;;57.22;22.85;;;-2.00;95.00;;;;;;5029857;28;20026;-73
2022/12/12 05:44:09;;;;;;;66.72;24.10;;;-2.00;95.00;;;;;;5030888;28;20025;-74
2022/12/12 05:46:36;;;;;;;60.58;22.70;;;-2.00;95.00;;;;;;5031021;28;20483;-73
2022/12/12 05:49:02;;;;;;;54.10;22.48;;;-2.10;94.90;;;;;;5030524;28;20356;-75
2022/12/12 05:51:27;;;;;;;57.97;21.60;;;-2.00;95.00;;;;;;5030425;28;20040;-73
2022/12/12 05:53:53;;;;;;;59.25;22.52;;;-2.10;94.90;;;;;;5030757;28;20207;-74
2022/12/12 05:56:19;;;;;;;62.17;23.52;;;-2.10;95.00;;;;;;5030080;28;20021;-75
2022/12/12 05:58:44;;;;;;;61.40;23.95;;;-2.10;95.10;;;;;;5030847;28;20029;-74
2022/12/12 06:01:10;;;;;;;55.80;21.58;;;-2.20;95.00;;;;;;5030678;28;20487;-74
2022/12/12 06:03:36;;;;;;;58.40;22.98;;;-2.20;95.00;;;;;;5029224;28;20040;-73
2022/12/12 06:06:02;;;;;;;54.92;23.08;;;-2.20;95.00;;;;;;5030177;28;20053;-74
2022/12/12 06:08:27;;;;;;;58.38;21.55;;;-2.30;95.00;;;;;;5030106;28;20037;-73
2022/12/12 06:10:53;;;;;;;54.05;21.88;;;-2.20;95.00;;;;;;5029674;28;20032;-73
2022/12/12 06:13:19;;;;;;;56.92;22.75;;;-2.20;95.00;;;;;;5030144;28;20041;-74
2022/12/12 06:15:45;;;;;;;53.50;21.73;;;-2.20;95.10;;;;;;5029326;28;20033;-74
2022/12/12 06:18:11;;;;;;;61.83;22.63;;;-2.20;95.10;;;;;;5033752;28;20040;-74
2022/12/12 06:20:37;;;;;;;54.45;21.00;;;-2.20;95.10;;;;;;5034303;28;20053;-74
2022/12/12 06:23:03;;;;;;;49.75;20.88;;;-2.20;95.00;;;;;;5033964;28;20040;-74
2022/12/12 06:25:29;;;;;;;64.43;22.02;;;-2.20;95.00;;;;;;5034364;28;20026;-76
2022/12/12 06:27:55;;;;;;;55.70;21.27;;;-2.30;94.90;;;;;;5033906;28;20509;-74
2022/12/12 06:30:20;;;;;;;104.13;40.85;;;-2.30;94.90;;;;;;5033951;28;20048;-76
2022/12/12 06:32:46;;;;;;;91.85;33.90;;;-2.30;95.10;;;;;;5033582;28;20033;-73
2022/12/12 06:35:12;;;;;;;56.97;22.13;;;-2.30;95.10;;;;;;5033698;28;20042;-75
2022/12/12 06:37:39;;;;;;;69.30;24.13;;;-2.20;95.20;;;;;;5032854;28;20021;-75
2022/12/12 06:40:06;;;;;;;58.80;21.55;;;-2.20;95.10;;;;;;5034103;28;20336;-74
2022/12/12 06:42:31;;;;;;;53.90;21.50;;;-2.20;95.10;;;;;;5033529;28;20119;-74
2022/12/12 06:44:57;;;;;;;64.30;21.15;;;-2.10;95.20;;;;;;5033414;28;20097;-76
2022/12/12 06:47:23;;;;;;;56.50;20.95;;;-2.10;94.90;;;;;;5033664;28;20067;-75
2022/12/12 06:49:48;;;;;;;48.65;19.20;;;-2.10;94.80;;;;;;5033865;28;20021;-73
2022/12/12 06:52:14;;;;;;;49.40;20.08;;;-2.30;94.70;;;;;;5032002;28;20406;-75
2022/12/12 06:54:40;;;;;;;51.85;19.63;;;-2.30;94.70;;;;;;5031877;28;20029;-76
2022/12/12 06:57:05;;;;;;;55.90;20.75;;;-2.40;94.70;;;;;;5033110;28;20037;-73
2022/12/12 06:59:31;;;;;;;56.83;20.33;;;-2.30;95.10;;;;;;5031809;28;20036;-74
2022/12/12 07:01:57;;;;;;;58.55;21.60;;;-2.20;94.90;;;;;;5033278;28;20115;-73
2022/12/12 07:04:24;;;;;;;59.50;20.58;;;-2.20;94.90;;;;;;5031599;28;20044;-74
2022/12/12 07:06:50;;;;;;;49.63;19.75;;;-2.20;94.80;;;;;;5032844;28;20021;-73
2022/12/12 07:09:16;;;;;;;51.78;19.38;;;-2.30;94.70;;;;;;5032873;28;20052;-73
2022/12/12 07:11:41;;;;;;;52.47;19.55;;;-2.40;94.70;;;;;;5032610;28;20021;-72
2022/12/12 07:14:08;;;;;;;56.25;21.52;;;-2.40;94.80;;;;;;5032634;28;20116;-74
2022/12/12 07:16:34;;;;;;;59.17;20.38;;;-2.30;95.00;;;;;;5032098;28;20029;-74
2022/12/12 07:19:00;;;;;;;52.50;19.40;;;-2.20;95.00;;;;;;5023718;28;20038;-73
2022/12/12 07:21:26;;;;;;;55.50;20.33;;;-2.30;95.00;;;;;;5011677;28;20099;-75
2022/12/12 07:23:51;;;;;;;57.50;20.35;;;-2.30;94.90;;;;;;5012734;28;20026;-72
2022/12/12 07:26:23;;;;;;;49.28;18.13;;;-2.20;95.00;;;;;;5012192;28;20030;-71
2022/12/12 07:28:50;;;;;;;56.55;19.52;;;-2.20;94.90;;;;;;5012055;28;20029;-73
2022/12/12 07:31:19;;;;;;;51.22;19.42;;;-2.20;94.80;;;;;;5011561;28;20082;-72
2022/12/12 07:33:46;;;;;;;58.08;20.13;;;-2.20;94.90;;;;;;5011791;28;20029;-74
2022/12/12 07:36:14;;;;;;;53.40;18.95;;;-2.20;94.90;;;;;;5012258;28;20034;-73
2022/12/12 07:38:40;;;;;;;52.92;19.70;;;-2.20;94.70;;;;;;5012535;28;20401;-72
2022/12/12 07:41:09;;;;;;;50.47;18.52;;;-2.20;94.80;;;;;;5011287;28;20167;-72
2022/12/12 07:43:36;;;;;;;50.22;18.63;;;-2.20;94.90;;;;;;5011681;28;20057;-74
2022/12/12 07:46:08;;;;;;;56.75;20.88;;;-2.20;94.80;;;;;;5012232;28;20105;-72
2022/12/12 07:48:34;;;;;;;55.60;19.00;;;-2.10;95.00;;;;;;5011958;28;20530;-74
2022/12/12 07:51:00;;;;;;;44.15;19.35;;;-2.10;94.70;;;;;;5011981;28;20535;-72
2022/12/12 07:53:27;;;;;;;47.72;19.95;;;-2.10;94.70;;;;;;5011868;28;20452;-72
2022/12/12 07:55:52;;;;;;;61.70;20.35;;;-2.00;94.90;;;;;;5013012;28;20142;-75
2022/12/12 07:58:18;;;;;;;51.67;19.00;;;-2.00;94.90;;;;;;5010724;28;20022;-72
2022/12/12 08:00:43;;;;;;;55.42;18.98;;;-2.10;94.90;;;;;;5011637;28;20478;-72
2022/12/12 08:03:09;;;;;;;49.72;20.38;;;-2.10;94.80;;;;;;5011834;28;20029;-73
2022/12/12 08:05:41;;;;;;;47.97;18.52;;;-2.10;94.80;;;;;;5011529;28;20392;-74
2022/12/12 08:08:07;;;;;;;57.35;20.33;;;-2.10;94.70;;;;;;5012051;28;20370;-74
2022/12/12 08:10:34;;;;;;;50.75;19.63;;;-2.10;94.70;;;;;;5012540;28;20033;-72
2022/12/12 08:12:59;;;;;;;49.85;18.73;;;-2.10;94.80;;;;;;5011556;28;20444;-73
2022/12/12 08:15:25;;;;;;;58.90;20.20;;;-2.00;95.00;;;;;;5011752;28;20066;-72
2022/12/12 08:17:51;;;;;;;48.88;18.00;;;-1.80;94.90;;;;;;5011565;28;20342;-74
2022/12/12 08:20:16;;;;;;;56.08;21.42;;;-1.80;95.00;;;;;;5011453;28;20041;-73
2022/12/12 08:22:42;;;;;;;52.95;19.73;;;-1.80;94.70;;;;;;5011886;28;20483;-74
2022/12/12 08:25:08;;;;;;;50.15;19.52;;;-1.90;94.60;;;;;;5011275;28;20525;-73
2022/12/12 08:27:34;;;;;;;50.83;20.52;;;-1.90;94.60;;;;;;5011624;28;20061;-74
2022/12/12 08:30:00;;;;;;;45.30;18.83;;;-1.90;94.60;;;;;;5011367;28;20084;-73
2022/12/12 08:32:25;;;;;;;55.88;20.02;;;-1.90;94.90;;;;;;5011253;28;20038;-74
2022/12/12 08:34:55;;;;;;;50.90;20.00;;;-1.70;94.90;;;;;;5012842;28;20044;-71
2022/12/12 08:37:21;;;;;;;48.58;18.90;;;-1.70;94.80;;;;;;5012181;28;20034;-73
2022/12/12 08:39:47;;;;;;;54.95;20.45;;;-1.80;94.60;;;;;;5012010;28;20065;-74
2022/12/12 08:42:12;;;;;;;50.30;20.58;;;-1.40;94.90;;;;;;5011301;28;20057;-73
2022/12/12 08:44:38;;;;;;;53.83;18.83;;;-1.60;94.90;;;;;;5011276;28;20033;-74
2022/12/12 08:47:04;;;;;;;55.72;20.00;;;-1.60;95.00;;;;;;5010079;28;20030;-74
2022/12/12 08:49:30;;;;;;;51.17;20.13;;;-1.50;95.00;;;;;;5011666;28;20440;-72
2022/12/12 08:51:55;;;;;;;63.78;21.35;;;-1.40;94.90;;;;;;5011417;28;20048;-74
2022/12/12 08:54:21;;;;;;;51.72;20.27;;;-1.10;95.00;;;;;;5010978;28;20129;-74
2022/12/12 08:56:47;;;;;;;53.35;19.58;;;-1.50;94.70;;;;;;5011229;28;20421;-74
2022/12/12 08:59:12;;;;;;;53.38;19.50;;;-1.40;94.80;;;;;;5011476;28;20366;-75
2022/12/12 09:01:39;;;;;;;48.17;18.77;;;-1.30;95.00;;;;;;5011971;28;20030;-74
2022/12/12 09:04:04;;;;;;;55.83;19.83;;;-1.30;94.80;;;;;;5011070;28;20034;-73
2022/12/12 09:06:30;;;;;;;50.30;19.98;;;-1.20;95.00;;;;;;5010738;28;20056;-74
2022/12/12 09:08:56;;;;;;;49.28;20.52;;;-1.20;94.90;;;;;;5011041;28;20092;-75
2022/12/12 09:11:22;;;;;;;46.75;19.27;;;-1.30;95.20;;;;;;5010608;28;20029;-73
2022/12/12 09:13:48;;;;;;;46.60;18.75;;;-1.20;95.40;;;;;;5010896;28;20104;-73
2022/12/12 09:16:14;;;;;;;51.35;18.70;;;-1.00;95.70;;;;;;5009306;28;20091;-71
2022/12/12 09:18:41;;;;;;;52.10;19.25;;;-1.10;95.50;;;;;;5010632;28;20117;-71
2022/12/12 09:21:07;;;;;;;54.38;22.30;;;-0.80;95.70;;;;;;5010728;28;20041;-73
2022/12/12 09:23:33;;;;;;;45.50;18.58;;;-0.70;95.90;;;;;;5010636;28;20048;-72
2022/12/12 09:26:04;;;;;;;52.70;19.42;;;-0.60;96.10;;;;;;5010015;28;20328;-75
2022/12/12 09:28:29;;;;;;;50.25;18.05;;;-0.50;96.10;;;;;;5010855;28;20034;-73
2022/12/12 09:30:55;;;;;;;55.92;19.30;;;-0.50;95.70;;;;;;5010457;28;20502;-73
2022/12/12 09:33:21;;;;;;;50.90;18.90;;;-0.40;95.70;;;;;;5010717;28;20034;-72
2022/12/12 09:35:46;;;;;;;48.33;20.25;;;-0.40;95.70;;;;;;5010630;28;20050;-72
2022/12/12 09:38:12;;;;;;;49.97;19.10;;;-0.20;95.90;;;;;;5009723;28;20044;-73
2022/12/12 09:40:51;;;;;;;51.33;20.58;;;-0.10;96.00;;;;;;5011370;28;20185;-72
2022/12/12 09:43:21;;;;;;;52.03;19.08;;;0.10;96.20;;;;;;5010760;28;20411;-73
2022/12/12 09:45:47;;;;;;;52.25;18.98;;;0.10;96.00;;;;;;5010897;28;20068;-72
2022/12/12 09:48:41;;;;;;;59.72;21.55;;;0.20;96.00;;;;;;5010579;28;20042;-72
2022/12/12 09:51:11;;;;;;;52.72;19.27;;;0.30;96.00;;;;;;5009116;28;20029;-72
2022/12/12 09:53:44;;;;;;;50.80;20.63;;;0.40;96.00;;;;;;5013794;28;20064;-72
2022/12/12 09:56:17;;;;;;;54.80;20.98;;;0.50;96.10;;;;;;5014616;28;20515;-71
2022/12/12 09:59:10;;;;;;;48.42;20.20;;;0.60;96.00;;;;;;5014987;28;20034;-72
2022/12/12 10:02:04;;;;;;;51.30;20.67;;;0.70;96.10;;;;;;5014747;28;20049;-72
2022/12/12 10:04:51;;;;;;;57.33;22.27;;;0.70;96.20;;;;;;5013120;28;20038;-72
2022/12/12 10:07:33;;;;;;;43.97;19.05;;;0.80;96.10;;;;;;5013513;28;20077;-72
2022/12/12 10:10:21;;;;;;;54.05;21.30;;;0.90;96.20;;;;;;5014466;28;20041;-73
2022/12/12 10:12:48;;;;;;;48.85;20.13;;;0.90;96.10;;;;;;5013490;28;20057;-72
2022/12/12 10:15:43;;;;;;;47.95;19.23;;;1.10;96.30;;;;;;5013447;28;20071;-74
2022/12/12 10:18:17;;;;;;;56.05;19.40;;;1.10;96.30;;;;;;5009878;28;20030;-73
2022/12/12 10:20:50;;;;;;;54.45;19.95;;;1.10;96.30;;;;;;5014034;28;20444;-73
2022/12/12 10:23:18;;;;;;;54.55;21.02;;;1.10;96.40;;;;;;5014287;28;20121;-72
2022/12/12 10:26:04;;;;;;;43.50;18.35;;;1.10;96.40;;;;;;5014628;28;20018;-71
2022/12/12 10:28:31;;;;;;;48.67;19.15;;;1.10;96.50;;;;;;5013281;28;20126;-71
2022/12/12 10:31:21;;;;;;;50.70;19.37;;;1.10;96.60;;;;;;5014154;28;20424;-72
2022/12/12 10:34:16;;;;;;;46.65;19.75;;;1.20;96.80;;;;;;5013613;28;20025;-71
2022/12/12 10:36:53;;;;;;;59.03;20.95;;;1.30;96.70;;;;;;5013772;28;20125;-72
2022/12/12 10:39:24;;;;;;;48.25;20.65;;;1.40;96.60;;;;;;5012569;28;20038;-72
2022/12/12 10:42:16;;;;;;;55.03;21.88;;;1.40;96.90;;;;;;5012472;28;20113;-71
2022/12/12 10:44:45;;;;;;;54.15;20.20;;;1.40;96.80;;;;;;5012260;28;20038;-72
2022/12/12 10:47:11;;;;;;;53.13;20.42;;;1.50;96.80;;;;;;5012320;28;20360;-71
2022/12/12 10:49:38;;;;;;;64.63;22.58;;;1.50;96.90;;;;;;5014443;28;20026;-71
2022/12/12 10:52:13;;;;;;;52.40;20.83;;;1.60;96.90;;;;;;5012159;28;20368;-71
2022/12/12 10:54:45;;;;;;;54.15;21.42;;;1.70;96.90;;;;;;5013604;28;20022;-69
2022/12/12 10:57:23;;;;;;;45.88;18.08;;;1.60;97.00;;;;;;5013508;28;20030;-71
2022/12/12 10:59:54;;;;;;;53.22;20.60;;;1.70;96.90;;;;;;5013391;28;20360;-72
2022/12/12 11:02:37;;;;;;;47.10;19.17;;;1.80;96.80;;;;;;5013407;28;20052;-71
2022/12/12 11:05:21;;;;;;;55.88;21.08;;;1.80;96.60;;;;;;5012285;28;20026;-73
2022/12/12 11:08:02;;;;;;;41.63;17.92;;;1.90;96.90;;;;;;5014369;28;20050;-71
2022/12/12 11:10:31;;;;;;;47.33;19.08;;;1.90;96.60;;;;;;5012331;28;20406;-72
2022/12/12 11:13:15;;;;;;;44.97;17.52;;;1.90;96.60;;;;;;5012925;28;20054;-71
2022/12/12 11:16:00;;;;;;;47.15;18.52;;;2.00;96.30;;;;;;5012342;28;20034;-72
2022/12/12 11:18:28;;;;;;;48.13;19.05;;;2.00;96.10;;;;;;5013292;28;20026;-73
2022/12/12 11:21:07;;;;;;;43.58;18.27;;;2.10;96.30;;;;;;5011927;28;20026;-72
2022/12/12 11:23:35;;;;;;;47.08;19.15;;;2.10;96.50;;;;;;5013381;28;20105;-72
2022/12/12 11:26:21;;;;;;;45.40;18.88;;;2.20;96.60;;;;;;5012874;28;20064;-71
2022/12/12 11:28:58;;;;;;;46.13;18.60;;;2.50;97.00;;;;;;5012636;28;20347;-76
2022/12/12 11:31:30;;;;;;;47.00;19.02;;;3.00;96.80;;;;;;5013286;28;20092;-76
2022/12/12 11:34:00;;;;;;;41.83;16.98;;;3.80;96.40;;;;;;5011671;28;20042;-77
2022/12/12 11:36:35;;;;;;;39.63;17.17;;;4.60;95.20;;;;;;5013026;28;20407;-76
2022/12/12 11:39:13;;;;;;;43.42;18.50;;;5.30;95.00;;;;;;5011529;28;20038;-76
2022/12/12 11:41:56;;;;;;;;;;;5.60;93.00;;;;;;5013319;28;20026;-74
2022/12/12 11:44:26;;;;;;;34.17;15.38;;;6.00;92.20;;;;;;5012669;28;20236;-78
2022/12/12 11:46:52;;;;;;;36.90;17.17;;;6.00;92.50;;;;;;5013237;28;20092;-77
2022/12/12 11:49:19;;;;;;;39.25;16.80;;;5.90;92.10;;;;;;5012986;28;20403;-75
2022/12/12 11:51:45;;;;;;;40.35;16.60;;;5.90;91.80;;;;;;5011556;28;20030;-77
2022/12/12 11:54:13;;;;;;;35.72;16.13;;;5.90;91.50;;;;;;5012687;28;20022;-83
2022/12/12 11:57:12;;;;;;;39.28;17.15;;;5.90;92.00;;;;;;5012448;28;20022;-76
2022/12/12 12:00:14;;;;;;;38.15;16.63;;;5.90;92.00;;;;;;4992499;28;20022;-74
2022/12/12 12:03:06;;;;;;;38.53;15.82;;;6.00;91.90;;;;;;5012275;28;20030;-74
2022/12/12 12:06:09;;;;;;;38.08;15.68;;;5.90;91.10;;;;;;5011150;28;20038;-74
2022/12/12 12:09:01;;;;;;;39.88;16.15;;;5.90;91.50;;;;;;5011911;28;20038;-74
2022/12/12 12:11:27;;;;;;;39.83;16.13;;;5.90;91.60;;;;;;5011994;28;20100;-75
2022/12/12 12:14:03;;;;;;;37.38;16.02;;;5.90;91.10;;;;;;5010652;28;20041;-72
2022/12/12 12:16:37;;;;;;;37.22;16.83;;;5.70;91.50;;;;;;5011118;28;20426;-74
2022/12/12 12:19:17;;;;;;;40.38;16.95;;;5.50;91.80;;;;;;5011785;28;20054;-74
2022/12/12 12:22:21;;;;;;;36.03;15.73;;;5.60;91.60;;;;;;5011050;28;20034;-74
2022/12/12 12:25:11;;;;;;;36.28;15.98;;;5.70;91.70;;;;;;5011829;28;20096;-74
2022/12/12 12:27:59;;;;;;;33.50;14.70;;;5.60;91.30;;;;;;5011884;28;20460;-74
2022/12/12 12:30:41;;;;;;;34.33;15.05;;;5.50;91.40;;;;;;5010544;28;20460;-74
2022/12/12 12:33:25;;;;;;;35.13;14.48;;;5.70;91.70;;;;;;5011872;28;20033;-72
2022/12/12 12:36:00;;;;;;;46.33;19.48;;;5.50;91.40;;;;;;5011797;28;20041;-72
2022/12/12 12:38:53;;;;;;;54.40;21.92;;;5.40;91.40;;;;;;5010322;28;20021;-75
2022/12/12 12:42:06;;;;;;;54.15;21.92;;;5.40;91.50;;;;;;5011588;28;20026;-74
2022/12/12 12:44:40;;;;;;;44.20;19.35;;;5.30;91.90;;;;;;5010578;28;20029;-75
2022/12/12 12:47:15;;;;;;;35.75;15.98;;;5.40;91.90;;;;;;5011332;28;20097;-75
2022/12/12 12:49:45;;;;;;;33.63;14.32;;;5.30;91.50;;;;;;5012340;28;20520;-75
2022/12/12 12:52:24;;;;;;;27.23;12.95;;;5.30;91.50;;;;;;5011403;28;20451;-75
2022/12/12 12:54:53;;;;;;;33.78;13.38;;;5.20;91.00;;;;;;5011614;28;20472;-75
2022/12/12 12:57:35;;;;;;;29.42;13.32;;;5.20;90.80;;;;;;5010734;28;20038;-77
2022/12/12 13:00:27;;;;;;;32.22;13.45;;;5.20;90.80;;;;;;5010460;28;20061;-75
2022/12/12 13:03:27;;;;;;;28.67;12.57;;;5.00;90.50;;;;;;5011127;28;20085;-73
2022/12/12 13:06:02;;;;;;;30.08;13.23;;;5.00;90.70;;;;;;4999280;28;20030;-73